sensor_id;sensor_type;location;lat;lon;timestamp;pressure;altitude;pressure_sealevel;temperature;humidity
27294;BME280;14785;52.556;13.430;2023-02-15T00:01:08;102378.03;;;8.21;100.00
27294;BME280;14785;52.556;13.430;2023-02-15T00:03:34;102385.03;;;8.36;100.00
27294;BME280;14785;52.556;13.430;2023-02-15T00:05:59;102384.06;;;8.37;100.00
27294;BME280;14785;52.556;13.430;2023-02-15T00:08:26;102387.09;;;7.91;100.00
27294;BME280;14785;52.556;13.430;2023-02-15T00:10:52;102387.78;;;8.35;100.00
27294;BME280;14785;52.556;13.430;2023-02-15T00:13:17;102386.97;;;8.47;100.00
27294;BME280;14785;52.556;13.430;2023-02-15T00:15:43;102386.06;;;8.60;100.00
27294;BME280;14785;52.556;13.430;2023-02-15T00:18:11;102388.22;;;8.68;100.00
27294;BME280;14785;52.556;13.430;2023-02-15T00:20:37;102364.78;;;8.21;100.00
27294;BME280;14785;52.556;13.430;2023-02-15T00:23:02;102372.75;;;8.48;100.00
27294;BME280;14785;52.556;13.430;2023-02-15T00:25:28;102364.28;;;8.55;100.00
27294;BME280;14785;52.556;13.430;2023-02-15T00:27:55;102366.44;;;8.63;100.00
27294;BME280;14785;52.556;13.430;2023-02-15T00:30:22;102356.91;;;8.60;100.00
27294;BME280;14785;52.556;13.430;2023-02-15T00:32:47;102358.84;;;8.71;100.00
27294;BME280;14785;52.556;13.430;2023-02-15T00:35:13;102359.34;;;8.63;100.00
27294;BME280;14785;52.556;13.430;2023-02-15T00:37:38;102358.88;;;8.57;100.00
27294;BME280;14785;52.556;13.430;2023-02-15T00:40:04;102353.22;;;8.49;100.00
27294;BME280;14785;52.556;13.430;2023-02-15T00:42:31;102356.16;;;8.32;100.00
27294;BME280;14785;52.556;13.430;2023-02-15T00:44:56;102369.41;;;8.58;100.00
27294;BME280;14785;52.556;13.430;2023-02-15T00:47:21;102366.66;;;8.60;100.00
27294;BME280;14785;52.556;13.430;2023-02-15T00:49:47;102368.41;;;8.47;100.00
27294;BME280;14785;52.556;13.430;2023-02-15T00:52:14;102364.94;;;8.59;100.00
27294;BME280;14785;52.556;13.430;2023-02-15T00:54:39;102371.59;;;8.52;100.00
27294;BME280;14785;52.556;13.430;2023-02-15T00:57:04;102363.13;;;8.47;100.00
27294;BME280;14785;52.556;13.430;2023-02-15T00:59:30;102362.09;;;8.35;100.00
27294;BME280;14785;52.556;13.430;2023-02-15T01:01:55;102364.22;;;8.30;100.00
27294;BME280;14785;52.556;13.430;2023-02-15T01:04:21;102353.31;;;8.21;100.00
27294;BME280;14785;52.556;13.430;2023-02-15T01:06:46;102354.19;;;8.21;100.00
27294;BME280;14785;52.556;13.430;2023-02-15T01:09:13;102350.50;;;8.24;100.00
27294;BME280;14785;52.556;13.430;2023-02-15T01:11:38;102350.47;;;8.38;100.00
27294;BME280;14785;52.556;13.430;2023-02-15T01:14:04;102339.66;;;8.41;100.00
27294;BME280;14785;52.556;13.430;2023-02-15T01:16:30;102342.22;;;8.42;100.00
27294;BME280;14785;52.556;13.430;2023-02-15T01:18:56;102340.38;;;8.43;100.00
27294;BME280;14785;52.556;13.430;2023-02-15T01:21:24;102332.50;;;8.29;100.00
27294;BME280;14785;52.556;13.430;2023-02-15T01:23:49;102334.41;;;8.27;100.00
27294;BME280;14785;52.556;13.430;2023-02-15T01:26:15;102330.78;;;8.28;100.00
27294;BME280;14785;52.556;13.430;2023-02-15T01:28:41;102321.50;;;8.21;100.00
27294;BME280;14785;52.556;13.430;2023-02-15T01:31:14;102324.88;;;8.10;100.00
27294;BME280;14785;52.556;13.430;2023-02-15T01:33:41;102324.28;;;8.19;100.00
27294;BME280;14785;52.556;13.430;2023-02-15T01:36:07;102320.22;;;8.14;100.00
27294;BME280;14785;52.556;13.430;2023-02-15T01:38:34;102312.78;;;8.06;100.00
27294;BME280;14785;52.556;13.430;2023-02-15T01:40:59;102316.81;;;8.12;100.00
27294;BME280;14785;52.556;13.430;2023-02-15T01:43:47;102306.72;;;8.04;100.00
27294;BME280;14785;52.556;13.430;2023-02-15T01:46:14;102304.22;;;7.89;100.00
27294;BME280;14785;52.556;13.430;2023-02-15T01:48:45;102303.34;;;8.02;100.00
27294;BME280;14785;52.556;13.430;2023-02-15T01:51:12;102296.41;;;8.00;100.00
27294;BME280;14785;52.556;13.430;2023-02-15T01:53:43;102293.78;;;8.00;100.00
27294;BME280;14785;52.556;13.430;2023-02-15T01:56:19;102288.84;;;8.08;100.00
27294;BME280;14785;52.556;13.430;2023-02-15T01:58:47;102283.94;;;8.02;100.00
27294;BME280;14785;52.556;13.430;2023-02-15T02:01:14;102288.84;;;8.08;100.00
27294;BME280;14785;52.556;13.430;2023-02-15T02:06:18;102286.06;;;8.09;100.00
27294;BME280;14785;52.556;13.430;2023-02-15T02:08:44;102276.25;;;8.11;100.00
27294;BME280;14785;52.556;13.430;2023-02-15T02:11:14;102276.34;;;8.10;100.00
27294;BME280;14785;52.556;13.430;2023-02-15T02:13:41;102269.53;;;8.06;100.00
27294;BME280;14785;52.556;13.430;2023-02-15T02:16:10;102274.91;;;7.92;100.00
27294;BME280;14785;52.556;13.430;2023-02-15T02:33:02;102257.88;;;7.81;100.00
27294;BME280;14785;52.556;13.430;2023-02-15T02:38:11;102249.94;;;7.81;100.00
27294;BME280;14785;52.556;13.430;2023-02-15T02:43:44;102250.22;;;7.77;100.00
27294;BME280;14785;52.556;13.430;2023-02-15T02:46:28;102246.19;;;7.71;100.00
27294;BME280;14785;52.556;13.430;2023-02-15T02:48:56;102251.28;;;7.74;100.00
27294;BME280;14785;52.556;13.430;2023-02-15T02:51:22;102249.03;;;7.68;100.00
27294;BME280;14785;52.556;13.430;2023-02-15T02:53:51;102247.34;;;7.67;100.00
27294;BME280;14785;52.556;13.430;2023-02-15T02:56:25;102240.69;;;7.74;100.00
27294;BME280;14785;52.556;13.430;2023-02-15T02:59:02;102235.44;;;7.60;100.00
27294;BME280;14785;52.556;13.430;2023-02-15T03:01:41;102234.63;;;7.72;100.00
27294;BME280;14785;52.556;13.430;2023-02-15T03:04:12;102228.63;;;7.56;100.00
27294;BME280;14785;52.556;13.430;2023-02-15T03:07:06;102226.75;;;7.58;100.00
27294;BME280;14785;52.556;13.430;2023-02-15T03:09:36;102235.22;;;7.63;100.00
27294;BME280;14785;52.556;13.430;2023-02-15T03:12:33;102226.94;;;7.55;100.00
27294;BME280;14785;52.556;13.430;2023-02-15T03:15:09;102227.34;;;7.49;100.00
27294;BME280;14785;52.556;13.430;2023-02-15T03:17:41;102221.66;;;7.55;100.00
27294;BME280;14785;52.556;13.430;2023-02-15T03:20:14;102222.06;;;7.49;100.00
27294;BME280;14785;52.556;13.430;2023-02-15T03:22:48;102211.84;;;7.43;100.00
27294;BME280;14785;52.556;13.430;2023-02-15T03:25:22;102215.91;;;7.35;100.00
27294;BME280;14785;52.556;13.430;2023-02-15T03:27:55;102210.81;;;7.46;100.00
27294;BME280;14785;52.556;13.430;2023-02-15T03:30:25;102213.06;;;7.38;100.00
27294;BME280;14785;52.556;13.430;2023-02-15T03:32:52;102215.22;;;7.45;100.00
27294;BME280;14785;52.556;13.430;2023-02-15T03:35:21;102207.97;;;7.35;100.00
27294;BME280;14785;52.556;13.430;2023-02-15T03:37:53;102211.00;;;7.29;100.00
27294;BME280;14785;52.556;13.430;2023-02-15T03:43:31;102199.03;;;7.23;100.00
27294;BME280;14785;52.556;13.430;2023-02-15T03:46:29;102200.53;;;7.27;100.00
27294;BME280;14785;52.556;13.430;2023-02-15T03:49:02;102197.72;;;7.16;100.00
27294;BME280;14785;52.556;13.430;2023-02-15T03:51:32;102197.34;;;7.08;100.00
27294;BME280;14785;52.556;13.430;2023-02-15T03:54:00;102195.09;;;7.02;100.00
27294;BME280;14785;52.556;13.430;2023-02-15T03:56:26;102194.13;;;7.17;100.00
27294;BME280;14785;52.556;13.430;2023-02-15T03:58:52;102180.38;;;7.12;100.00
27294;BME280;14785;52.556;13.430;2023-02-15T04:04:36;102189.06;;;6.86;100.00
27294;BME280;14785;52.556;13.430;2023-02-15T04:07:05;102189.56;;;6.93;100.00
27294;BME280;14785;52.556;13.430;2023-02-15T04:09:31;102186.25;;;7.03;100.00
27294;BME280;14785;52.556;13.430;2023-02-15T04:12:15;102180.66;;;7.08;100.00
27294;BME280;14785;52.556;13.430;2023-02-15T04:14:40;102184.50;;;7.02;100.00
27294;BME280;14785;52.556;13.430;2023-02-15T04:17:24;102177.53;;;7.01;100.00
27294;BME280;14785;52.556;13.430;2023-02-15T04:19:49;102176.81;;;6.71;100.00
27294;BME280;14785;52.556;13.430;2023-02-15T04:22:33;102170.38;;;6.75;100.00
27294;BME280;14785;52.556;13.430;2023-02-15T04:25:17;102167.53;;;6.78;100.00
27294;BME280;14785;52.556;13.430;2023-02-15T04:27:45;102179.81;;;6.65;100.00
27294;BME280;14785;52.556;13.430;2023-02-15T04:30:13;102166.75;;;6.20;100.00
27294;BME280;14785;52.556;13.430;2023-02-15T04:32:39;102166.53;;;5.95;100.00
27294;BME280;14785;52.556;13.430;2023-02-15T04:35:05;102171.44;;;5.56;100.00
27294;BME280;14785;52.556;13.430;2023-02-15T04:37:32;102166.44;;;5.36;100.00
27294;BME280;14785;52.556;13.430;2023-02-15T04:39:57;102165.50;;;5.21;100.00
27294;BME280;14785;52.556;13.430;2023-02-15T04:42:26;102162.34;;;5.15;100.00
27294;BME280;14785;52.556;13.430;2023-02-15T04:44:53;102164.72;;;5.35;100.00
27294;BME280;14785;52.556;13.430;2023-02-15T04:47:19;102158.09;;;5.12;100.00
27294;BME280;14785;52.556;13.430;2023-02-15T04:49:45;102159.09;;;5.41;100.00
27294;BME280;14785;52.556;13.430;2023-02-15T04:52:10;102146.53;;;5.46;100.00
27294;BME280;14785;52.556;13.430;2023-02-15T04:54:36;102137.84;;;4.97;100.00
27294;BME280;14785;52.556;13.430;2023-02-15T04:57:01;102136.19;;;5.12;100.00
27294;BME280;14785;52.556;13.430;2023-02-15T04:59:27;102140.00;;;4.43;100.00
27294;BME280;14785;52.556;13.430;2023-02-15T05:01:52;102135.97;;;4.84;100.00
27294;BME280;14785;52.556;13.430;2023-02-15T05:04:18;102122.34;;;5.38;100.00
27294;BME280;14785;52.556;13.430;2023-02-15T05:06:43;102129.19;;;5.11;100.00
27294;BME280;14785;52.556;13.430;2023-02-15T05:09:10;102123.91;;;5.11;100.00
27294;BME280;14785;52.556;13.430;2023-02-15T05:11:36;102120.00;;;4.87;100.00
27294;BME280;14785;52.556;13.430;2023-02-15T05:14:01;102114.47;;;4.76;100.00
27294;BME280;14785;52.556;13.430;2023-02-15T05:16:27;102123.56;;;4.86;100.00
27294;BME280;14785;52.556;13.430;2023-02-15T05:18:52;102119.31;;;4.68;100.00
27294;BME280;14785;52.556;13.430;2023-02-15T05:21:18;102119.91;;;4.25;100.00
27294;BME280;14785;52.556;13.430;2023-02-15T05:23:43;102119.75;;;4.43;100.00
27294;BME280;14785;52.556;13.430;2023-02-15T05:26:15;102115.22;;;4.62;100.00
27294;BME280;14785;52.556;13.430;2023-02-15T05:28:59;102124.44;;;4.06;100.00
27294;BME280;14785;52.556;13.430;2023-02-15T05:31:25;102121.88;;;3.70;100.00
27294;BME280;14785;52.556;13.430;2023-02-15T05:33:50;102117.50;;;3.87;100.00
27294;BME280;14785;52.556;13.430;2023-02-15T05:36:16;102115.19;;;4.47;100.00
27294;BME280;14785;52.556;13.430;2023-02-15T05:38:41;102110.69;;;4.16;100.00
27294;BME280;14785;52.556;13.430;2023-02-15T05:41:08;102112.72;;;4.44;100.00
27294;BME280;14785;52.556;13.430;2023-02-15T05:43:34;102106.03;;;4.69;100.00
27294;BME280;14785;52.556;13.430;2023-02-15T05:46:01;102110.41;;;4.38;100.00
27294;BME280;14785;52.556;13.430;2023-02-15T05:48:27;102097.69;;;4.46;100.00
27294;BME280;14785;52.556;13.430;2023-02-15T05:50:59;102097.66;;;4.30;100.00
27294;BME280;14785;52.556;13.430;2023-02-15T05:53:26;102103.94;;;3.78;100.00
27294;BME280;14785;52.556;13.430;2023-02-15T05:55:51;102096.03;;;3.95;100.00
27294;BME280;14785;52.556;13.430;2023-02-15T05:58:17;102106.72;;;3.58;100.00
27294;BME280;14785;52.556;13.430;2023-02-15T06:00:42;102113.69;;;3.06;100.00
27294;BME280;14785;52.556;13.430;2023-02-15T06:03:08;102112.81;;;3.92;100.00
27294;BME280;14785;52.556;13.430;2023-02-15T06:05:34;102107.16;;;2.96;100.00
27294;BME280;14785;52.556;13.430;2023-02-15T06:07:59;102109.97;;;3.10;100.00
27294;BME280;14785;52.556;13.430;2023-02-15T06:10:24;102103.66;;;3.31;100.00
27294;BME280;14785;52.556;13.430;2023-02-15T06:12:50;102112.22;;;3.70;100.00
27294;BME280;14785;52.556;13.430;2023-02-15T06:15:15;102099.31;;;4.16;100.00
27294;BME280;14785;52.556;13.430;2023-02-15T06:17:42;102105.00;;;3.91;100.00
27294;BME280;14785;52.556;13.430;2023-02-15T06:20:08;102104.28;;;4.22;100.00
27294;BME280;14785;52.556;13.430;2023-02-15T06:22:34;102095.47;;;4.54;100.00
27294;BME280;14785;52.556;13.430;2023-02-15T06:24:59;102107.88;;;3.86;100.00
27294;BME280;14785;52.556;13.430;2023-02-15T06:27:25;102103.25;;;4.24;100.00
27294;BME280;14785;52.556;13.430;2023-02-15T06:29:50;102098.28;;;4.03;100.00
27294;BME280;14785;52.556;13.430;2023-02-15T06:32:16;102088.03;;;4.62;100.00
27294;BME280;14785;52.556;13.430;2023-02-15T06:34:41;102090.44;;;4.34;100.00
27294;BME280;14785;52.556;13.430;2023-02-15T06:37:07;102089.69;;;4.15;100.00
27294;BME280;14785;52.556;13.430;2023-02-15T06:39:33;102089.66;;;4.32;100.00
27294;BME280;14785;52.556;13.430;2023-02-15T06:41:59;102088.88;;;4.78;100.00
27294;BME280;14785;52.556;13.430;2023-02-15T06:44:25;102081.31;;;4.72;100.00
27294;BME280;14785;52.556;13.430;2023-02-15T06:46:50;102083.38;;;5.27;100.00
27294;BME280;14785;52.556;13.430;2023-02-15T06:49:15;102087.03;;;4.95;100.00
27294;BME280;14785;52.556;13.430;2023-02-15T06:51:41;102089.22;;;4.56;100.00
27294;BME280;14785;52.556;13.430;2023-02-15T06:54:06;102086.34;;;3.95;100.00
27294;BME280;14785;52.556;13.430;2023-02-15T06:56:32;102083.59;;;3.64;100.00
27294;BME280;14785;52.556;13.430;2023-02-15T06:58:57;102089.78;;;3.63;100.00
27294;BME280;14785;52.556;13.430;2023-02-15T07:01:23;102093.66;;;3.90;100.00
27294;BME280;14785;52.556;13.430;2023-02-15T07:03:49;102092.69;;;3.91;100.00
27294;BME280;14785;52.556;13.430;2023-02-15T07:06:14;102096.97;;;3.77;100.00
27294;BME280;14785;52.556;13.430;2023-02-15T07:08:40;102085.22;;;4.17;100.00
27294;BME280;14785;52.556;13.430;2023-02-15T07:11:06;102081.97;;;4.12;100.00
27294;BME280;14785;52.556;13.430;2023-02-15T07:13:51;102083.69;;;4.13;100.00
27294;BME280;14785;52.556;13.430;2023-02-15T07:16:18;102083.94;;;4.72;100.00
27294;BME280;14785;52.556;13.430;2023-02-15T07:18:44;102074.16;;;5.50;100.00
27294;BME280;14785;52.556;13.430;2023-02-15T07:21:09;102064.03;;;5.13;100.00
27294;BME280;14785;52.556;13.430;2023-02-15T07:23:39;102066.81;;;5.55;100.00
27294;BME280;14785;52.556;13.430;2023-02-15T07:26:06;102060.66;;;5.84;100.00
27294;BME280;14785;52.556;13.430;2023-02-15T07:28:32;102056.91;;;5.29;100.00
27294;BME280;14785;52.556;13.430;2023-02-15T07:30:58;102053.84;;;4.76;100.00
27294;BME280;14785;52.556;13.430;2023-02-15T07:33:24;102063.09;;;3.54;100.00
27294;BME280;14785;52.556;13.430;2023-02-15T07:35:50;102070.28;;;3.33;100.00
27294;BME280;14785;52.556;13.430;2023-02-15T07:38:17;102071.34;;;3.80;100.00
27294;BME280;14785;52.556;13.430;2023-02-15T07:40:43;102059.25;;;4.26;100.00
27294;BME280;14785;52.556;13.430;2023-02-15T07:43:09;102053.81;;;4.45;100.00
27294;BME280;14785;52.556;13.430;2023-02-15T07:45:34;102043.31;;;3.79;100.00
27294;BME280;14785;52.556;13.430;2023-02-15T07:48:01;102047.16;;;4.07;100.00
27294;BME280;14785;52.556;13.430;2023-02-15T07:50:27;102043.66;;;5.15;100.00
27294;BME280;14785;52.556;13.430;2023-02-15T07:52:52;102042.75;;;5.45;100.00
27294;BME280;14785;52.556;13.430;2023-02-15T07:55:18;102030.09;;;5.07;100.00
27294;BME280;14785;52.556;13.430;2023-02-15T07:57:45;102029.19;;;4.46;100.00
27294;BME280;14785;52.556;13.430;2023-02-15T08:00:15;102021.19;;;4.32;100.00
27294;BME280;14785;52.556;13.430;2023-02-15T08:02:42;102019.81;;;4.87;100.00
27294;BME280;14785;52.556;13.430;2023-02-15T08:05:08;102023.41;;;5.31;100.00
27294;BME280;14785;52.556;13.430;2023-02-15T08:07:33;102023.13;;;5.06;100.00
27294;BME280;14785;52.556;13.430;2023-02-15T08:09:59;102030.63;;;4.51;100.00
27294;BME280;14785;52.556;13.430;2023-02-15T08:12:27;102035.56;;;4.73;100.00
27294;BME280;14785;52.556;13.430;2023-02-15T08:14:53;102030.38;;;4.87;100.00
27294;BME280;14785;52.556;13.430;2023-02-15T08:17:18;102029.72;;;4.83;100.00
27294;BME280;14785;52.556;13.430;2023-02-15T08:19:44;102030.72;;;4.50;100.00
27294;BME280;14785;52.556;13.430;2023-02-15T08:22:12;102039.78;;;3.63;100.00
27294;BME280;14785;52.556;13.430;2023-02-15T08:24:37;102048.47;;;3.48;100.00
27294;BME280;14785;52.556;13.430;2023-02-15T08:27:04;102039.19;;;3.24;100.00
27294;BME280;14785;52.556;13.430;2023-02-15T08:29:31;102039.19;;;3.24;100.00
27294;BME280;14785;52.556;13.430;2023-02-15T08:31:57;102041.44;;;3.32;100.00
27294;BME280;14785;52.556;13.430;2023-02-15T08:34:29;102043.38;;;3.45;100.00
27294;BME280;14785;52.556;13.430;2023-02-15T08:36:56;102034.16;;;3.86;100.00
27294;BME280;14785;52.556;13.430;2023-02-15T08:39:22;102022.97;;;4.31;100.00
27294;BME280;14785;52.556;13.430;2023-02-15T08:41:48;102017.72;;;4.47;100.00
27294;BME280;14785;52.556;13.430;2023-02-15T08:44:16;102013.91;;;4.68;100.00
27294;BME280;14785;52.556;13.430;2023-02-15T08:46:43;102009.31;;;4.71;100.00
27294;BME280;14785;52.556;13.430;2023-02-15T08:49:12;102012.84;;;4.86;100.00
27294;BME280;14785;52.556;13.430;2023-02-15T08:51:38;102007.59;;;4.86;100.00
27294;BME280;14785;52.556;13.430;2023-02-15T08:54:06;102004.19;;;4.84;100.00
27294;BME280;14785;52.556;13.430;2023-02-15T08:56:35;101999.44;;;4.44;100.00
27294;BME280;14785;52.556;13.430;2023-02-15T08:59:02;101993.50;;;4.56;100.00
27294;BME280;14785;52.556;13.430;2023-02-15T09:01:30;101993.63;;;4.84;100.00
27294;BME280;14785;52.556;13.430;2023-02-15T09:04:00;101988.97;;;4.89;100.00
27294;BME280;14785;52.556;13.430;2023-02-15T09:06:27;101984.97;;;4.82;100.00
27294;BME280;14785;52.556;13.430;2023-02-15T09:08:53;101985.88;;;5.26;100.00
27294;BME280;14785;52.556;13.430;2023-02-15T09:11:21;101985.84;;;4.67;100.00
27294;BME280;14785;52.556;13.430;2023-02-15T09:13:55;101988.19;;;4.87;100.00
27294;BME280;14785;52.556;13.430;2023-02-15T09:16:23;101990.19;;;5.13;100.00
27294;BME280;14785;52.556;13.430;2023-02-15T09:18:49;101986.09;;;5.37;100.00
27294;BME280;14785;52.556;13.430;2023-02-15T09:21:18;101987.47;;;5.28;100.00
27294;BME280;14785;52.556;13.430;2023-02-15T09:23:45;101991.03;;;5.57;100.00
27294;BME280;14785;52.556;13.430;2023-02-15T09:26:14;101981.06;;;5.76;100.00
27294;BME280;14785;52.556;13.430;2023-02-15T09:28:40;101979.59;;;5.86;100.00
27294;BME280;14785;52.556;13.430;2023-02-15T09:31:10;101975.13;;;5.72;100.00
27294;BME280;14785;52.556;13.430;2023-02-15T09:33:37;101987.66;;;5.55;100.00
27294;BME280;14785;52.556;13.430;2023-02-15T09:36:05;101983.06;;;5.29;100.00
27294;BME280;14785;52.556;13.430;2023-02-15T09:38:31;101987.38;;;5.16;100.00
27294;BME280;14785;52.556;13.430;2023-02-15T09:41:20;101989.50;;;5.53;100.00
27294;BME280;14785;52.556;13.430;2023-02-15T09:44:03;101991.38;;;5.51;100.00
27294;BME280;14785;52.556;13.430;2023-02-15T09:46:42;101982.75;;;5.77;100.00
27294;BME280;14785;52.556;13.430;2023-02-15T10:06:16;101978.78;;;6.40;100.00
27294;BME280;14785;52.556;13.430;2023-02-15T10:09:03;101974.41;;;6.39;100.00
27294;BME280;14785;52.556;13.430;2023-02-15T10:12:08;101980.38;;;6.29;100.00
27294;BME280;14785;52.556;13.430;2023-02-15T10:28:37;101961.78;;;6.71;100.00
27294;BME280;14785;52.556;13.430;2023-02-15T10:31:46;101953.78;;;7.36;100.00
27294;BME280;14785;52.556;13.430;2023-02-15T10:34:58;101940.88;;;6.80;100.00
27294;BME280;14785;52.556;13.430;2023-02-15T10:39:52;101936.41;;;8.44;100.00
27294;BME280;14785;52.556;13.430;2023-02-15T11:01:05;101923.41;;;10.75;100.00
27294;BME280;14785;52.556;13.430;2023-02-15T11:06:05;101920.66;;;10.01;100.00
27294;BME280;14785;52.556;13.430;2023-02-15T11:08:38;101913.97;;;10.29;100.00
27294;BME280;14785;52.556;13.430;2023-02-15T11:11:08;101904.47;;;9.60;100.00
27294;BME280;14785;52.556;13.430;2023-02-15T11:13:44;101901.91;;;9.58;100.00
27294;BME280;14785;52.556;13.430;2023-02-15T11:16:17;101895.38;;;9.96;100.00
27294;BME280;14785;52.556;13.430;2023-02-15T11:18:51;101898.31;;;10.57;100.00
27294;BME280;14785;52.556;13.430;2023-02-15T11:21:26;101904.13;;;10.51;100.00
27294;BME280;14785;52.556;13.430;2023-02-15T11:23:53;101896.13;;;10.62;100.00
27294;BME280;14785;52.556;13.430;2023-02-15T11:26:39;101892.44;;;11.36;100.00
27294;BME280;14785;52.556;13.430;2023-02-15T11:31:54;101894.59;;;12.61;100.00
27294;BME280;14785;52.556;13.430;2023-02-15T11:34:31;101883.16;;;11.30;100.00
27294;BME280;14785;52.556;13.430;2023-02-15T11:37:03;101886.38;;;12.15;100.00
27294;BME280;14785;52.556;13.430;2023-02-15T11:39:31;101884.34;;;12.94;100.00
27294;BME280;14785;52.556;13.430;2023-02-15T11:42:02;101874.38;;;13.06;100.00
27294;BME280;14785;52.556;13.430;2023-02-15T11:44:32;101878.47;;;12.04;100.00
27294;BME280;14785;52.556;13.430;2023-02-15T11:47:00;101868.41;;;12.26;100.00
27294;BME280;14785;52.556;13.430;2023-02-15T11:49:33;101866.88;;;12.24;100.00
27294;BME280;14785;52.556;13.430;2023-02-15T11:52:06;101872.31;;;12.13;100.00
27294;BME280;14785;52.556;13.430;2023-02-15T11:54:36;101871.41;;;11.84;100.00
27294;BME280;14785;52.556;13.430;2023-02-15T11:57:14;101866.56;;;11.68;100.00
27294;BME280;14785;52.556;13.430;2023-02-15T11:59:46;101866.06;;;12.33;100.00
27294;BME280;14785;52.556;13.430;2023-02-15T12:02:20;101864.50;;;13.16;100.00
27294;BME280;14785;52.556;13.430;2023-02-15T12:05:01;101869.75;;;13.54;100.00
27294;BME280;14785;52.556;13.430;2023-02-15T12:07:36;101870.84;;;13.61;100.00
27294;BME280;14785;52.556;13.430;2023-02-15T12:10:23;101870.41;;;13.10;100.00
27294;BME280;14785;52.556;13.430;2023-02-15T12:13:13;101862.53;;;13.64;100.00
27294;BME280;14785;52.556;13.430;2023-02-15T12:15:45;101866.53;;;13.87;100.00
27294;BME280;14785;52.556;13.430;2023-02-15T12:20:47;101854.31;;;13.38;100.00
27294;BME280;14785;52.556;13.430;2023-02-15T12:23:15;101847.91;;;13.22;100.00
27294;BME280;14785;52.556;13.430;2023-02-15T12:25:49;101849.00;;;14.47;100.00
27294;BME280;14785;52.556;13.430;2023-02-15T12:30:58;101841.75;;;13.12;100.00
27294;BME280;14785;52.556;13.430;2023-02-15T12:33:32;101837.25;;;12.65;100.00
27294;BME280;14785;52.556;13.430;2023-02-15T12:36:17;101835.16;;;12.40;100.00
27294;BME280;14785;52.556;13.430;2023-02-15T12:39:02;101843.03;;;14.08;100.00
27294;BME280;14785;52.556;13.430;2023-02-15T12:41:28;101835.44;;;15.09;100.00
27294;BME280;14785;52.556;13.430;2023-02-15T12:44:15;101825.31;;;12.88;100.00
27294;BME280;14785;52.556;13.430;2023-02-15T12:46:41;101829.56;;;13.36;100.00
27294;BME280;14785;52.556;13.430;2023-02-15T12:51:47;101808.50;;;14.67;100.00
27294;BME280;14785;52.556;13.430;2023-02-15T12:56:48;101819.28;;;14.23;100.00
27294;BME280;14785;52.556;13.430;2023-02-15T12:59:14;101806.56;;;14.77;100.00
27294;BME280;14785;52.556;13.430;2023-02-15T13:01:41;101812.59;;;15.22;100.00
27294;BME280;14785;52.556;13.430;2023-02-15T13:04:27;101800.81;;;15.15;100.00
27294;BME280;14785;52.556;13.430;2023-02-15T13:07:00;101789.69;;;14.59;100.00
27294;BME280;14785;52.556;13.430;2023-02-15T13:11:56;101795.13;;;14.67;100.00
27294;BME280;14785;52.556;13.430;2023-02-15T13:14:31;101788.78;;;14.33;100.00
27294;BME280;14785;52.556;13.430;2023-02-15T13:17:00;101782.72;;;14.14;100.00
27294;BME280;14785;52.556;13.430;2023-02-15T13:19:37;101776.28;;;14.77;100.00
27294;BME280;14785;52.556;13.430;2023-02-15T13:22:11;101777.56;;;15.50;100.00
27294;BME280;14785;52.556;13.430;2023-02-15T13:24:45;101776.50;;;15.76;100.00
27294;BME280;14785;52.556;13.430;2023-02-15T13:27:23;101774.50;;;16.52;100.00
27294;BME280;14785;52.556;13.430;2023-02-15T13:29:52;101764.75;;;15.36;100.00
27294;BME280;14785;52.556;13.430;2023-02-15T13:34:54;101750.94;;;14.28;100.00
27294;BME280;14785;52.556;13.430;2023-02-15T13:37:36;101756.19;;;13.31;100.00
27294;BME280;14785;52.556;13.430;2023-02-15T13:40:20;101759.03;;;14.36;100.00
27294;BME280;14785;52.556;13.430;2023-02-15T13:42:49;101751.84;;;14.54;100.00
27294;BME280;14785;52.556;13.430;2023-02-15T13:48:52;101742.28;;;12.72;100.00
27294;BME280;14785;52.556;13.430;2023-02-15T13:51:45;101742.66;;;12.96;100.00
27294;BME280;14785;52.556;13.430;2023-02-15T13:55:00;101754.50;;;13.84;100.00
27294;BME280;14785;52.556;13.430;2023-02-15T13:57:29;101747.53;;;14.61;100.00
27294;BME280;14785;52.556;13.430;2023-02-15T14:06:00;101750.94;;;14.97;100.00
27294;BME280;14785;52.556;13.430;2023-02-15T14:14:31;101753.28;;;13.96;100.00
27294;BME280;14785;52.556;13.430;2023-02-15T14:17:23;101754.00;;;15.02;100.00
27294;BME280;14785;52.556;13.430;2023-02-15T14:19:58;101749.69;;;15.09;100.00
27294;BME280;14785;52.556;13.430;2023-02-15T14:22:35;101737.72;;;14.95;100.00
27294;BME280;14785;52.556;13.430;2023-02-15T14:25:25;101743.34;;;14.41;100.00
27294;BME280;14785;52.556;13.430;2023-02-15T14:30:29;101733.41;;;14.51;100.00
27294;BME280;14785;52.556;13.430;2023-02-15T14:33:02;101737.09;;;15.01;100.00
27294;BME280;14785;52.556;13.430;2023-02-15T14:35:30;101730.06;;;14.75;100.00
27294;BME280;14785;52.556;13.430;2023-02-15T14:43:42;101728.06;;;15.02;100.00
27294;BME280;14785;52.556;13.430;2023-02-15T14:48:53;101716.25;;;14.44;100.00
27294;BME280;14785;52.556;13.430;2023-02-15T15:07:53;101709.41;;;13.44;100.00
27294;BME280;14785;52.556;13.430;2023-02-15T15:12:49;101699.22;;;12.94;100.00
27294;BME280;14785;52.556;13.430;2023-02-15T15:20:59;101706.56;;;12.82;100.00
27294;BME280;14785;52.556;13.430;2023-02-15T15:23:44;101704.41;;;12.40;100.00
27294;BME280;14785;52.556;13.430;2023-02-15T15:31:40;101720.66;;;12.75;100.00